Time;durP1;ratioP1;P1;durP2;ratioP2;P2;SDS_P1;SDS_P2;PMS_P1;PMS_P2;Temp;Humidity;BMP_temperature;BMP_pressure;BME280_temperature;BME280_humidity;BME280_pressure;Samples;Min_cycle;Max_cycle;Signal;HPM_P1;HPM_P2
2023/02/22 00:02:27;;;;;;;7.50;6.10;;;;;;;;;;6176091;23;20487;-81
2023/02/22 00:04:55;;;;;;;6.93;5.77;;;;;;;;;;6176690;23;20397;-81
2023/02/22 00:07:23;;;;;;;13.63;6.40;;;;;;;;;;6175950;23;20464;-80
2023/02/22 00:09:50;;;;;;;8.63;5.67;;;;;;;;;;6177455;23;20444;-81
2023/02/22 00:12:19;;;;;;;9.07;5.63;;;;;;;;;;6176725;23;20473;-80
2023/02/22 00:14:46;;;;;;;11.83;7.00;;;;;;;;;;6173651;23;20978;-80
2023/02/22 00:17:15;;;;;;;6.23;5.17;;;;;;;;;;6168105;23;20535;-80
2023/02/22 00:19:42;;;;;;;9.57;5.90;;;;;;;;;;6175756;23;20429;-81
2023/02/22 00:22:09;;;;;;;7.90;5.80;;;;;;;;;;6175512;23;20477;-80
2023/02/22 00:24:37;;;;;;;6.80;6.20;;;;;;;;;;6167884;23;20456;-83
2023/02/22 00:27:04;;;;;;;8.87;6.30;;;;;;;;;;6167576;23;20432;-85
2023/02/22 00:29:33;;;;;;;8.50;5.57;;;;;;;;;;6153403;23;20419;-85
2023/02/22 00:32:00;;;;;;;8.30;5.37;;;;;;;;;;6164810;23;20420;-83
2023/02/22 00:34:27;;;;;;;9.80;5.63;;;;;;;;;;6153033;23;20417;-84
2023/02/22 00:36:54;;;;;;;9.27;5.80;;;;;;;;;;6155652;23;20453;-89
2023/02/22 00:39:21;;;;;;;8.67;5.87;;;;;;;;;;6156200;23;20417;-84
2023/02/22 00:41:49;;;;;;;11.60;6.37;;;;;;;;;;6158809;23;20842;-81
2023/02/22 00:44:16;;;;;;;7.53;5.37;;;;;;;;;;6165472;23;20404;-85
2023/02/22 00:46:44;;;;;;;7.40;4.90;;;;;;;;;;6161650;23;20408;-90
2023/02/22 00:49:11;;;;;;;6.30;5.70;;;;;;;;;;6155450;23;20411;-83
2023/02/22 00:51:38;;;;;;;6.97;4.77;;;;;;;;;;6152730;23;20943;-83
2023/02/22 00:54:05;;;;;;;9.37;5.57;;;;;;;;;;6152480;23;20441;-83
2023/02/22 00:56:33;;;;;;;6.27;4.60;;;;;;;;;;6152055;23;20450;-81
2023/02/22 00:59:01;;;;;;;9.17;4.40;;;;;;;;;;6154394;23;20436;-81
2023/02/22 01:01:28;;;;;;;7.97;4.90;;;;;;;;;;6159182;23;20468;-83
2023/02/22 01:03:56;;;;;;;8.80;5.50;;;;;;;;;;6160610;23;20921;-86
2023/02/22 01:06:23;;;;;;;5.17;4.00;;;;;;;;;;6161729;23;20419;-86
2023/02/22 01:08:50;;;;;;;6.93;4.80;;;;;;;;;;6158744;23;20409;-81
2023/02/22 01:11:17;;;;;;;6.40;4.40;;;;;;;;;;6158740;23;20385;-83
2023/02/22 01:13:45;;;;;;;7.00;4.00;;;;;;;;;;6156069;23;20520;-83
2023/02/22 01:16:13;;;;;;;7.53;4.43;;;;;;;;;;6157082;23;20407;-81
2023/02/22 01:18:40;;;;;;;7.17;4.63;;;;;;;;;;6157384;23;20535;-81
2023/02/22 01:21:08;;;;;;;5.77;4.70;;;;;;;;;;6159393;23;20419;-84
2023/02/22 01:23:35;;;;;;;4.93;3.23;;;;;;;;;;6159360;23;20744;-86
2023/02/22 01:26:04;;;;;;;8.90;5.13;;;;;;;;;;6159825;23;20413;-87
2023/02/22 01:28:31;;;;;;;4.70;3.53;;;;;;;;;;6160503;23;20405;-83
2023/02/22 01:31:00;;;;;;;4.50;4.10;;;;;;;;;;6161219;23;20400;-89
2023/02/22 01:33:29;;;;;;;5.17;3.90;;;;;;;;;;6159379;23;20404;-85
2023/02/22 01:35:56;;;;;;;5.30;3.80;;;;;;;;;;6155330;23;20401;-83
2023/02/22 01:38:23;;;;;;;5.00;3.70;;;;;;;;;;6156624;23;20447;-81
2023/02/22 01:40:51;;;;;;;3.30;2.70;;;;;;;;;;6160555;23;20405;-81
2023/02/22 01:43:20;;;;;;;4.83;3.73;;;;;;;;;;6163724;23;20415;-83
2023/02/22 01:45:49;;;;;;;5.40;3.37;;;;;;;;;;6159357;23;20404;-84
2023/02/22 01:48:19;;;;;;;5.30;4.43;;;;;;;;;;6156072;23;20397;-81
2023/02/22 01:50:52;;;;;;;4.43;3.53;;;;;;;;;;6156372;23;20412;-82
2023/02/22 01:53:21;;;;;;;4.70;4.20;;;;;;;;;;6157262;23;20564;-81
2023/02/22 01:55:48;;;;;;;4.90;3.13;;;;;;;;;;6159503;23;20769;-84
2023/02/22 01:58:16;;;;;;;4.07;3.50;;;;;;;;;;6157448;23;20436;-83
2023/02/22 02:00:44;;;;;;;7.60;3.57;;;;;;;;;;6158126;23;20397;-84
2023/02/22 02:03:13;;;;;;;4.40;3.67;;;;;;;;;;6155537;23;20428;-83
2023/02/22 02:05:41;;;;;;;3.90;3.60;;;;;;;;;;6157116;23;20429;-82
2023/02/22 02:08:13;;;;;;;4.10;3.10;;;;;;;;;;6155755;23;20467;-84
2023/02/22 02:10:41;;;;;;;3.83;3.53;;;;;;;;;;6154106;23;20392;-85
2023/02/22 02:13:08;;;;;;;3.63;2.80;;;;;;;;;;6153631;23;20511;-85
2023/02/22 02:15:36;;;;;;;4.70;3.30;;;;;;;;;;6157087;23;20405;-80
2023/02/22 02:18:04;;;;;;;6.07;3.40;;;;;;;;;;6153463;23;20788;-81
2023/02/22 02:20:36;;;;;;;4.00;3.13;;;;;;;;;;6153707;23;20769;-85
2023/02/22 02:23:09;;;;;;;4.47;3.20;;;;;;;;;;6152843;23;20420;-84
2023/02/22 02:25:53;;;;;;;4.23;3.33;;;;;;;;;;6153397;23;20382;-87
2023/02/22 02:28:48;;;;;;;6.33;3.20;;;;;;;;;;6155400;23;20385;-85
2023/02/22 02:31:22;;;;;;;4.13;2.67;;;;;;;;;;6154522;23;20405;-84
2023/02/22 02:33:53;;;;;;;3.20;2.50;;;;;;;;;;6153534;23;20393;-83
2023/02/22 02:36:24;;;;;;;4.43;3.33;;;;;;;;;;6155115;23;20432;-81
2023/02/22 02:38:54;;;;;;;5.90;3.27;;;;;;;;;;6155043;23;20440;-82
2023/02/22 02:41:23;;;;;;;3.63;2.80;;;;;;;;;;6154576;23;21004;-85
2023/02/22 02:43:53;;;;;;;6.43;2.83;;;;;;;;;;6153983;23;20389;-85
2023/02/22 02:46:22;;;;;;;4.60;2.67;;;;;;;;;;6152975;23;20390;-81
2023/02/22 02:48:55;;;;;;;8.13;2.97;;;;;;;;;;6153179;23;20393;-84
2023/02/22 02:51:23;;;;;;;4.50;2.87;;;;;;;;;;6152242;23;20520;-88
2023/02/22 02:53:51;;;;;;;4.97;2.67;;;;;;;;;;6152103;23;20497;-82
2023/02/22 02:56:19;;;;;;;3.30;3.00;;;;;;;;;;6152451;23;20393;-81
2023/02/22 02:58:49;;;;;;;2.93;2.60;;;;;;;;;;6152594;23;20455;-85
2023/02/22 03:01:21;;;;;;;3.67;3.10;;;;;;;;;;6152321;23;20740;-84
2023/02/22 03:04:06;;;;;;;3.50;2.43;;;;;;;;;;6153975;23;20384;-88
2023/02/22 03:06:41;;;;;;;3.67;2.30;;;;;;;;;;6154334;23;20407;-81
2023/02/22 03:09:14;;;;;;;3.20;2.43;;;;;;;;;;6160517;23;20405;-85
2023/02/22 03:11:47;;;;;;;3.63;2.67;;;;;;;;;;6161942;23;20393;-84
2023/02/22 03:14:17;;;;;;;6.13;2.67;;;;;;;;;;6157968;23;20433;-83
2023/02/22 03:16:46;;;;;;;4.27;2.57;;;;;;;;;;6166299;23;20448;-83
2023/02/22 03:19:17;;;;;;;3.87;2.60;;;;;;;;;;6161935;23;20459;-82
2023/02/22 03:21:50;;;;;;;2.30;2.10;;;;;;;;;;6157277;23;20403;-87
2023/02/22 03:24:19;;;;;;;5.93;2.87;;;;;;;;;;6156912;23;20397;-83
2023/02/22 03:26:51;;;;;;;7.83;2.37;;;;;;;;;;6157249;23;20415;-84
2023/02/22 03:29:19;;;;;;;3.93;2.60;;;;;;;;;;6154490;23;20404;-84
2023/02/22 03:31:49;;;;;;;5.10;2.70;;;;;;;;;;6157209;23;20413;-82
2023/02/22 03:34:17;;;;;;;4.30;3.00;;;;;;;;;;6156165;23;20385;-82
2023/02/22 03:36:47;;;;;;;2.63;2.43;;;;;;;;;;6156039;23;20393;-83
2023/02/22 03:39:17;;;;;;;3.23;2.50;;;;;;;;;;6154322;23;20483;-84
2023/02/22 03:41:50;;;;;;;2.90;2.10;;;;;;;;;;6154529;23;20392;-85
2023/02/22 03:44:19;;;;;;;6.80;3.07;;;;;;;;;;6150352;23;20499;-90
2023/02/22 03:46:48;;;;;;;3.93;2.57;;;;;;;;;;6151239;23;20412;-84
2023/02/22 03:49:18;;;;;;;4.50;3.10;;;;;;;;;;6151902;23;20413;-82
2023/02/22 03:51:46;;;;;;;4.63;2.70;;;;;;;;;;6153308;23;21003;-83
2023/02/22 03:54:15;;;;;;;5.67;2.97;;;;;;;;;;6150872;23;20906;-84
2023/02/22 03:56:46;;;;;;;2.93;2.10;;;;;;;;;;6151532;23;20831;-83
2023/02/22 03:59:13;;;;;;;3.63;2.37;;;;;;;;;;6155974;23;20450;-82
2023/02/22 04:01:40;;;;;;;2.80;2.47;;;;;;;;;;6156140;23;20400;-81
2023/02/22 04:04:07;;;;;;;8.10;2.80;;;;;;;;;;6156090;23;20545;-83
2023/02/22 04:06:34;;;;;;;3.63;2.60;;;;;;;;;;6156352;23;20919;-85
2023/02/22 04:09:02;;;;;;;3.90;2.70;;;;;;;;;;6156268;23;20481;-83
2023/02/22 04:11:29;;;;;;;3.27;2.57;;;;;;;;;;6155714;23;20408;-82
2023/02/22 04:13:57;;;;;;;4.93;2.93;;;;;;;;;;6154235;23;20447;-85
2023/02/22 04:16:24;;;;;;;2.90;2.53;;;;;;;;;;6152585;23;20490;-82
2023/02/22 04:18:52;;;;;;;4.60;3.70;;;;;;;;;;6154232;23;20853;-85
2023/02/22 04:21:19;;;;;;;3.27;2.97;;;;;;;;;;6155700;23;20409;-92
2023/02/22 04:23:46;;;;;;;4.70;2.50;;;;;;;;;;6152459;23;20918;-91
2023/02/22 04:26:13;;;;;;;3.30;3.00;;;;;;;;;;6155011;23;20444;-78
2023/02/22 04:28:40;;;;;;;4.27;3.10;;;;;;;;;;6150022;23;20397;-78
2023/02/22 04:31:09;;;;;;;3.07;2.77;;;;;;;;;;6150450;23;20416;-78
2023/02/22 04:33:36;;;;;;;4.67;2.63;;;;;;;;;;6149778;23;20891;-78
2023/02/22 04:36:03;;;;;;;6.60;2.90;;;;;;;;;;6151886;23;20428;-82
2023/02/22 04:38:30;;;;;;;3.40;2.60;;;;;;;;;;6152048;23;20519;-77
2023/02/22 04:40:57;;;;;;;3.23;2.77;;;;;;;;;;6153524;23;20420;-78
2023/02/22 04:43:25;;;;;;;4.30;3.00;;;;;;;;;;6151761;23;20419;-80
2023/02/22 04:45:52;;;;;;;6.00;2.60;;;;;;;;;;6153043;23;20401;-77
2023/02/22 04:48:21;;;;;;;5.77;3.10;;;;;;;;;;6153629;23;20895;-84
2023/02/22 04:50:49;;;;;;;5.53;3.30;;;;;;;;;;6155515;23;20405;-78
2023/02/22 04:53:17;;;;;;;6.33;3.20;;;;;;;;;;6152184;23;20408;-82
2023/02/22 04:55:44;;;;;;;5.10;2.90;;;;;;;;;;6149123;23;20409;-78
2023/02/22 04:58:11;;;;;;;3.10;2.73;;;;;;;;;;6151669;23;20418;-78
2023/02/22 05:00:38;;;;;;;4.00;2.70;;;;;;;;;;6151225;23;20432;-81
2023/02/22 05:03:05;;;;;;;4.80;3.27;;;;;;;;;;6148407;23;20407;-78
2023/02/22 05:05:33;;;;;;;7.00;3.40;;;;;;;;;;6150866;23;20413;-79
2023/02/22 05:08:00;;;;;;;4.03;3.20;;;;;;;;;;6149360;23;20420;-78
2023/02/22 05:10:28;;;;;;;8.47;3.40;;;;;;;;;;6149828;23;20851;-77
2023/02/22 05:12:55;;;;;;;2.93;2.73;;;;;;;;;;6149558;23;21024;-77
2023/02/22 05:15:24;;;;;;;3.60;3.30;;;;;;;;;;6149959;23;20385;-78
2023/02/22 05:17:51;;;;;;;5.37;3.23;;;;;;;;;;6148885;23;20401;-78
2023/02/22 05:20:23;;;;;;;8.40;4.50;;;;;;;;;;6149537;23;20447;-79
2023/02/22 05:22:52;;;;;;;11.43;3.67;;;;;;;;;;6150461;23;20401;-77
2023/02/22 05:25:20;;;;;;;7.97;4.23;;;;;;;;;;6149124;23;20413;-77
2023/02/22 05:27:50;;;;;;;12.40;4.80;;;;;;;;;;6149985;23;20413;-77
2023/02/22 05:30:17;;;;;;;5.73;3.87;;;;;;;;;;6150052;23;20396;-78
2023/02/22 05:32:45;;;;;;;8.23;4.07;;;;;;;;;;6149640;23;20420;-82
2023/02/22 05:35:12;;;;;;;6.37;3.67;;;;;;;;;;6148209;23;20523;-78
2023/02/22 05:37:39;;;;;;;4.63;3.53;;;;;;;;;;6147962;23;20397;-75
2023/02/22 05:40:08;;;;;;;4.53;3.40;;;;;;;;;;6148248;23;20475;-79
2023/02/22 05:42:35;;;;;;;20.07;17.13;;;;;;;;;;6151114;23;20393;-80
2023/02/22 05:45:02;;;;;;;5.30;3.03;;;;;;;;;;6149819;23;20420;-77
2023/02/22 05:47:30;;;;;;;6.33;4.17;;;;;;;;;;6150814;23;20397;-78
2023/02/22 05:49:57;;;;;;;3.57;3.10;;;;;;;;;;6155912;23;20953;-79
2023/02/22 05:52:24;;;;;;;8.53;4.20;;;;;;;;;;6152025;23;20434;-78
2023/02/22 05:54:51;;;;;;;3.93;2.63;;;;;;;;;;6154197;23;20395;-78
2023/02/22 05:57:19;;;;;;;5.40;3.37;;;;;;;;;;6153723;23;20419;-78
2023/02/22 05:59:46;;;;;;;5.07;3.40;;;;;;;;;;6151920;23;20451;-76
2023/02/22 06:02:13;;;;;;;3.57;2.67;;;;;;;;;;6149261;23;20814;-76
2023/02/22 06:04:40;;;;;;;4.33;3.60;;;;;;;;;;6151082;23;20413;-79
2023/02/22 06:07:08;;;;;;;7.20;4.30;;;;;;;;;;6153769;23;20408;-81
2023/02/22 06:09:35;;;;;;;4.10;3.27;;;;;;;;;;6157420;23;20403;-81
2023/02/22 06:12:02;;;;;;;3.80;3.00;;;;;;;;;;6158303;23;20420;-83
2023/02/22 06:14:31;;;;;;;7.87;3.87;;;;;;;;;;6153998;23;20483;-83
2023/02/22 06:16:59;;;;;;;3.73;3.37;;;;;;;;;;6152291;23;20397;-85
2023/02/22 06:19:27;;;;;;;3.47;3.17;;;;;;;;;;6150815;23;20510;-80
2023/02/22 06:21:55;;;;;;;4.17;3.87;;;;;;;;;;6151437;23;20424;-85
2023/02/22 06:24:22;;;;;;;5.90;3.70;;;;;;;;;;6150008;23;20433;-82
2023/02/22 06:26:55;;;;;;;5.63;3.73;;;;;;;;;;6148465;23;20421;-82
2023/02/22 06:29:22;;;;;;;6.40;3.70;;;;;;;;;;6150486;23;20393;-73
2023/02/22 06:31:51;;;;;;;4.00;3.40;;;;;;;;;;6149908;23;20451;-75
2023/02/22 06:34:18;;;;;;;5.17;3.40;;;;;;;;;;6150403;23;20397;-77
2023/02/22 06:36:46;;;;;;;4.70;4.07;;;;;;;;;;6148944;23;20419;-78
2023/02/22 06:39:14;;;;;;;4.30;3.83;;;;;;;;;;6149766;23;20441;-77
2023/02/22 06:41:41;;;;;;;4.90;3.40;;;;;;;;;;6148504;23;20911;-78
2023/02/22 06:44:09;;;;;;;6.53;3.47;;;;;;;;;;6150203;23;20409;-79
2023/02/22 06:46:36;;;;;;;4.77;3.27;;;;;;;;;;6152591;23;20397;-83
2023/02/22 06:49:05;;;;;;;8.10;3.80;;;;;;;;;;6156733;23;20401;-80
2023/02/22 06:51:36;;;;;;;7.03;3.87;;;;;;;;;;6153480;23;20766;-82
2023/02/22 06:54:04;;;;;;;7.80;3.50;;;;;;;;;;6151896;23;20416;-75
2023/02/22 06:56:32;;;;;;;7.13;3.53;;;;;;;;;;6149855;23;20707;-80
2023/02/22 06:59:00;;;;;;;5.33;4.40;;;;;;;;;;6150689;23;20750;-76
2023/02/22 07:01:28;;;;;;;10.33;4.70;;;;;;;;;;6150448;23;20444;-79
2023/02/22 07:03:55;;;;;;;5.80;3.33;;;;;;;;;;6152601;23;20406;-82
2023/02/22 07:06:23;;;;;;;5.33;3.83;;;;;;;;;;6154389;23;20416;-80
2023/02/22 07:08:51;;;;;;;4.23;3.00;;;;;;;;;;6152783;23;20965;-79
2023/02/22 07:11:18;;;;;;;5.37;3.53;;;;;;;;;;6154838;23;20708;-79
2023/02/22 07:13:45;;;;;;;7.07;5.23;;;;;;;;;;6152513;23;20444;-78
2023/02/22 07:16:12;;;;;;;11.30;4.00;;;;;;;;;;6149181;23;20417;-77
2023/02/22 07:18:39;;;;;;;5.03;3.50;;;;;;;;;;6147035;23;20738;-79
2023/02/22 07:21:07;;;;;;;4.73;4.33;;;;;;;;;;6147440;23;20393;-78
2023/02/22 07:23:35;;;;;;;4.93;3.50;;;;;;;;;;6147347;23;20416;-78
2023/02/22 07:26:04;;;;;;;6.67;3.40;;;;;;;;;;6147492;23;20415;-78
2023/02/22 07:28:31;;;;;;;8.83;4.20;;;;;;;;;;6148445;23;20419;-78
2023/02/22 07:31:00;;;;;;;3.70;3.13;;;;;;;;;;6148593;23;20403;-78
2023/02/22 07:33:27;;;;;;;3.10;2.80;;;;;;;;;;6148941;23;20914;-78
2023/02/22 07:35:54;;;;;;;10.00;3.90;;;;;;;;;;6149729;23;20420;-79
2023/02/22 07:38:21;;;;;;;9.83;3.80;;;;;;;;;;6149127;23;20393;-78
2023/02/22 07:40:49;;;;;;;4.87;3.07;;;;;;;;;;6149481;23;20811;-78
2023/02/22 07:43:18;;;;;;;4.80;3.50;;;;;;;;;;6148669;23;20420;-78
2023/02/22 07:45:45;;;;;;;3.97;3.57;;;;;;;;;;6148445;23;20598;-78
2023/02/22 07:48:13;;;;;;;7.33;3.97;;;;;;;;;;6148929;23;20405;-78
2023/02/22 07:50:40;;;;;;;5.43;3.13;;;;;;;;;;6149868;23;20413;-79
2023/02/22 07:53:09;;;;;;;5.70;3.47;;;;;;;;;;6149713;23;20401;-78
2023/02/22 07:55:36;;;;;;;3.90;3.60;;;;;;;;;;6149143;23;20426;-78
2023/02/22 07:58:06;;;;;;;12.07;4.23;;;;;;;;;;6149029;23;20772;-78
2023/02/22 08:00:34;;;;;;;6.23;3.67;;;;;;;;;;6149504;23;20433;-78
2023/02/22 08:03:02;;;;;;;7.73;4.07;;;;;;;;;;6149591;23;20966;-78
2023/02/22 08:05:30;;;;;;;5.57;3.90;;;;;;;;;;6149412;23;20417;-77
2023/02/22 08:07:57;;;;;;;12.90;3.03;;;;;;;;;;6149618;23;20417;-75
2023/02/22 08:10:25;;;;;;;6.33;3.50;;;;;;;;;;6150676;23;20411;-75
2023/02/22 08:12:52;;;;;;;4.67;3.50;;;;;;;;;;6148593;23;20436;-76
2023/02/22 08:15:23;;;;;;;2.70;2.50;;;;;;;;;;6148771;23;20397;-76
2023/02/22 08:31:13;;;;;;;6.57;3.43;;;7.70;99.90;;;;;;5104154;27;20557;-75
2023/02/22 08:33:41;;;;;;;3.70;3.37;;;8.90;99.90;;;;;;5104427;28;21018;-75
2023/02/22 08:36:08;;;;;;;6.40;3.03;;;8.80;99.90;;;;;;5104457;28;20444;-75
2023/02/22 08:38:36;;;;;;;4.63;3.13;;;9.00;99.90;;;;;;5101166;28;20460;-76
2023/02/22 08:41:03;;;;;;;3.20;2.93;;;10.00;99.90;;;;;;5103634;28;20530;-76
2023/02/22 08:43:30;;;;;;;6.40;3.80;;;10.40;99.90;;;;;;5103859;28;20447;-79
2023/02/22 08:45:56;;;;;;;12.70;5.30;;;11.00;99.90;;;;;;5096807;28;20456;-77
2023/02/22 08:48:25;;;;;;;4.87;3.57;;;11.00;99.90;;;;;;5103627;28;20467;-76
2023/02/22 08:50:52;;;;;;;7.67;3.70;;;12.50;99.90;;;;;;5103619;28;20853;-76
2023/02/22 08:53:19;;;;;;;9.83;3.70;;;12.40;99.90;;;;;;5103124;28;20443;-76
2023/02/22 08:55:46;;;;;;;4.00;3.10;;;10.50;99.90;;;;;;5104025;28;20483;-76
2023/02/22 08:58:13;;;;;;;4.33;3.67;;;11.10;99.90;;;;;;5104926;28;20440;-76
2023/02/22 09:00:40;;;;;;;5.13;2.70;;;11.90;99.90;;;;;;5103941;28;21030;-75
2023/02/22 09:03:09;;;;;;;5.57;3.50;;;13.30;99.90;;;;;;5103280;28;20440;-76
2023/02/22 09:05:37;;;;;;;5.43;3.47;;;12.60;99.90;;;;;;5103366;28;20444;-75
2023/02/22 09:08:04;;;;;;;5.83;3.13;;;12.10;99.90;;;;;;5103040;28;20455;-77
2023/02/22 09:10:33;;;;;;;9.00;3.87;;;;;;;;;;5103281;28;20450;-76
2023/02/22 09:13:01;;;;;;;6.20;3.63;;;11.40;99.90;;;;;;5102145;28;20460;-76
2023/02/22 09:15:28;;;;;;;7.10;4.10;;;11.90;99.90;;;;;;5102832;28;20440;-75
2023/02/22 09:17:55;;;;;;;7.30;3.63;;;12.50;99.90;;;;;;5097228;28;20550;-77
2023/02/22 09:20:24;;;;;;;6.33;4.47;;;12.50;99.90;;;;;;5091886;28;21092;-73
2023/02/22 09:22:52;;;;;;;6.03;3.37;;;12.50;99.90;;;;;;5099135;28;20483;-79
2023/02/22 09:25:20;;;;;;;10.67;4.40;;;14.10;99.90;;;;;;5097308;28;20464;-74
2023/02/22 09:27:49;;;;;;;11.67;4.00;;;14.60;99.90;;;;;;5099360;28;20448;-74
2023/02/22 09:30:24;;;;;;;6.97;3.53;;;14.10;99.90;;;;;;5090866;28;20484;-75
2023/02/22 09:32:53;;;;;;;5.03;3.50;;;12.40;99.90;;;;;;5061731;28;20456;-73
2023/02/22 09:35:25;;;;;;;12.23;3.53;;;12.60;99.90;;;;;;5073187;28;20445;-74
2023/02/22 09:37:54;;;;;;;5.27;2.67;;;14.00;99.90;;;;;;5082947;28;20449;-74
2023/02/22 09:40:24;;;;;;;3.30;2.43;;;13.90;99.90;;;;;;5085111;28;20492;-74
2023/02/22 09:43:02;;;;;;;4.23;2.90;;;16.00;99.90;;;;;;5086216;28;20453;-74
2023/02/22 09:45:35;;;;;;;4.23;2.80;;;;;;;;;;5086116;28;20441;-74
2023/02/22 09:48:03;;;;;;;3.80;3.07;;;;;;;;;;5084065;28;20874;-74
2023/02/22 09:50:34;;;;;;;9.23;4.20;;;;;;;;;;5085147;28;20448;-74
2023/02/22 09:53:04;;;;;;;30.17;8.40;;;;;;;;;;5085433;28;20858;-74
2023/02/22 09:55:34;;;;;;;4.33;3.20;;;;;;;;;;5085251;28;20455;-74
2023/02/22 09:58:03;;;;;;;7.83;3.50;;;;;;;;;;5085447;28;21038;-74
2023/02/22 10:00:32;;;;;;;3.40;2.43;;;;;;;;;;5078828;28;20488;-75
2023/02/22 10:03:12;;;;;;;2.87;2.67;;;20.10;99.90;;;;;;5065142;28;20460;-75
2023/02/22 10:05:41;;;;;;;3.43;2.60;;;;;;;;;;5064751;28;20449;-76
2023/02/22 10:08:14;;;;;;;3.10;2.80;;;20.80;98.50;;;;;;5083981;28;20457;-76
2023/02/22 10:10:44;;;;;;;3.20;2.10;;;21.50;99.90;;;;;;5077987;28;20464;-75
2023/02/22 10:13:26;;;;;;;2.70;2.50;;;21.70;99.90;;;;;;5065064;28;20656;-74
2023/02/22 10:16:00;;;;;;;6.43;3.20;;;22.00;99.90;;;;;;5064986;28;20457;-78
2023/02/22 10:19:09;;;;;;;4.00;2.17;;;20.60;99.90;;;;;;5074544;28;20697;-79
2023/02/22 10:21:52;;;;;;;2.33;2.13;;;17.80;99.50;;;;;;5080296;28;20482;-74
2023/02/22 10:24:37;;;;;;;3.20;2.10;;;18.20;99.90;;;;;;5082151;28;20448;-77
2023/02/22 10:27:07;;;;;;;3.33;2.40;;;19.60;99.90;;;;;;5082772;28;20451;-74
2023/02/22 10:29:39;;;;;;;6.23;2.10;;;20.50;99.90;;;;;;5064526;28;20923;-73
2023/02/22 10:32:12;;;;;;;4.43;1.97;;;20.80;99.20;;;;;;5064620;28;20520;-74
2023/02/22 10:34:43;;;;;;;4.40;2.10;;;21.20;99.10;;;;;;5064804;28;20457;-74
2023/02/22 10:37:23;;;;;;;3.27;2.43;;;20.30;98.20;;;;;;5069501;28;20942;-74
2023/02/22 10:39:57;;;;;;;5.00;2.43;;;17.50;98.10;;;;;;5084199;28;20510;-75
2023/02/22 10:42:27;;;;;;;6.67;2.67;;;19.00;99.10;;;;;;5083019;28;20764;-75
2023/02/22 10:44:55;;;;;;;2.90;2.10;;;16.70;97.50;;;;;;5084416;28;20550;-76
2023/02/22 10:47:23;;;;;;;4.40;2.33;;;15.90;99.70;;;;;;5084561;28;20855;-76
2023/02/22 10:49:55;;;;;;;9.53;3.20;;;16.30;99.90;;;;;;5063659;28;21055;-77
2023/02/22 10:52:26;;;;;;;2.70;2.00;;;17.60;99.90;;;;;;5064038;28;20460;-76
2023/02/22 10:54:56;;;;;;;3.10;2.57;;;19.50;99.10;;;;;;5072386;28;21067;-77
2023/02/22 10:57:26;;;;;;;4.80;4.30;;;21.20;98.10;;;;;;5083937;28;20444;-76
2023/02/22 10:59:56;;;;;;;2.27;1.93;;;20.50;97.50;;;;;;5083663;28;20476;-76
2023/02/22 11:02:27;;;;;;;3.57;1.83;;;21.60;96.80;;;;;;5083053;28;20456;-76
2023/02/22 11:04:55;;;;;;;2.43;2.23;;;22.10;96.40;;;;;;5084139;28;20464;-77
2023/02/22 11:07:26;;;;;;;3.33;1.80;;;22.50;96.20;;;;;;5083417;28;20455;-76
2023/02/22 11:09:56;;;;;;;4.00;2.17;;;22.80;95.90;;;;;;5083968;28;20561;-77
2023/02/22 11:12:29;;;;;;;3.30;2.07;;;22.40;95.80;;;;;;5082787;28;21050;-76
2023/02/22 11:14:56;;;;;;;2.33;2.07;;;22.40;95.80;;;;;;5084279;28;20456;-76
2023/02/22 11:17:31;;;;;;;2.07;1.87;;;22.70;95.30;;;;;;5084130;28;20813;-77
2023/02/22 11:19:59;;;;;;;2.40;2.00;;;23.10;95.20;;;;;;5084235;28;20863;-75
2023/02/22 11:22:29;;;;;;;2.67;1.60;;;23.10;94.50;;;;;;5083538;28;20529;-76
2023/02/22 11:25:01;;;;;;;3.77;1.63;;;23.80;94.70;;;;;;5083756;28;21017;-76
2023/02/22 11:27:37;;;;;;;2.60;2.40;;;23.60;94.40;;;;;;5083721;28;20440;-77
2023/02/22 11:30:27;;;;;;;2.77;2.07;;;23.50;94.30;;;;;;5083972;28;20781;-77
2023/02/22 11:32:58;;;;;;;1.50;1.40;;;23.20;95.00;;;;;;5082665;28;20439;-75
2023/02/22 11:35:48;;;;;;;7.70;1.93;;;20.70;94.50;;;;;;5082891;28;20461;-76
2023/02/22 11:38:20;;;;;;;2.40;1.80;;;20.70;96.20;;;;;;5083991;28;21032;-77
2023/02/22 11:41:06;;;;;;;2.77;1.60;;;21.60;96.10;;;;;;5083553;28;20854;-77
2023/02/22 11:43:34;;;;;;;3.53;1.83;;;19.80;95.30;;;;;;5084068;28;20545;-75
2023/02/22 11:46:03;;;;;;;1.83;1.60;;;19.20;96.60;;;;;;5084039;28;20972;-77
2023/02/22 11:48:34;;;;;;;2.07;1.83;;;20.20;97.60;;;;;;5085256;28;20447;-77
2023/02/22 11:51:16;;;;;;;4.03;1.63;;;22.00;97.00;;;;;;5085176;28;20583;-77
2023/02/22 11:54:12;;;;;;;3.20;1.50;;;23.30;96.30;;;;;;5082404;28;20528;-77
2023/02/22 11:56:47;;;;;;;3.00;1.90;;;23.60;96.10;;;;;;5084752;28;20436;-76
2023/02/22 11:59:30;;;;;;;2.63;1.70;;;24.30;96.40;;;;;;5084438;28;20443;-76
2023/02/22 12:02:04;;;;;;;1.70;1.60;;;24.80;95.40;;;;;;5084449;28;20471;-77
2023/02/22 12:04:46;;;;;;;2.83;1.47;;;25.00;95.20;;;;;;5086912;28;20436;-77
2023/02/22 12:07:43;;;;;;;2.70;1.63;;;24.40;94.70;;;;;;5084248;28;20442;-77
2023/02/22 12:10:21;;;;;;;2.83;1.70;;;24.80;95.40;;;;;;5057228;28;20947;-76
2023/02/22 12:13:03;;;;;;;1.67;1.57;;;25.90;94.80;;;;;;5079338;28;20451;-79
2023/02/22 12:15:39;;;;;;;1.67;1.57;;;25.60;94.60;;;;;;5086205;28;20914;-76
2023/02/22 12:18:14;;;;;;;1.30;1.20;;;27.00;94.30;;;;;;5082416;28;20447;-81
2023/02/22 12:20:46;;;;;;;2.53;1.33;;;27.30;94.10;;;;;;5086002;28;21026;-78
2023/02/22 12:23:18;;;;;;;1.77;1.30;;;27.40;93.80;;;;;;5085944;28;20455;-75
2023/02/22 12:25:57;;;;;;;2.80;1.50;;;22.40;93.20;;;;;;5086175;28;20444;-76
2023/02/22 12:28:30;;;;;;;1.93;1.37;;;21.20;94.70;;;;;;5079579;28;20437;-75
2023/02/22 12:31:07;;;;;;;2.63;1.70;;;20.70;95.80;;;;;;5080036;28;20823;-77
2023/02/22 12:33:44;;;;;;;2.07;1.60;;;21.60;96.00;;;;;;5062478;28;20450;-77
2023/02/22 12:36:15;;;;;;;3.77;1.50;;;20.60;95.80;;;;;;5062437;28;20457;-77
2023/02/22 12:38:46;;;;;;;1.60;1.37;;;21.40;95.60;;;;;;5062935;28;20769;-74
2023/02/22 12:41:22;;;;;;;5.73;1.77;;;23.50;96.90;;;;;;5062161;28;20692;-77
2023/02/22 12:43:55;;;;;;;1.60;1.50;;;25.40;95.80;;;;;;5067310;28;20463;-78
2023/02/22 12:46:27;;;;;;;3.53;1.40;;;26.30;94.50;;;;;;5082316;28;20882;-78
2023/02/22 12:49:00;;;;;;;2.03;1.20;;;25.10;94.80;;;;;;5081014;28;20471;-76
2023/02/22 12:51:34;;;;;;;1.50;1.40;;;24.20;95.20;;;;;;5082564;28;20479;-77
2023/02/22 12:54:11;;;;;;;2.13;1.33;;;23.00;95.40;;;;;;5082598;28;20462;-76
2023/02/22 12:56:44;;;;;;;1.53;1.40;;;22.20;96.00;;;;;;5081948;28;21343;-75
2023/02/22 12:59:18;;;;;;;1.20;1.10;;;21.70;95.90;;;;;;5082190;28;20452;-75
2023/02/22 13:01:51;;;;;;;1.40;1.30;;;21.30;96.10;;;;;;5082736;28;20500;-79
2023/02/22 13:04:18;;;;;;;1.30;1.20;;;22.00;96.40;;;;;;5082327;28;21000;-77
2023/02/22 13:06:57;;;;;;;6.73;1.30;;;22.70;96.00;;;;;;5071435;28;20461;-76
2023/02/22 13:09:40;;;;;;;1.77;1.17;;;23.90;96.00;;;;;;5066054;28;20472;-75
2023/02/22 13:12:16;;;;;;;1.40;1.30;;;24.20;95.60;;;;;;5066416;28;20723;-76
2023/02/22 13:14:55;;;;;;;1.00;0.90;;;23.20;95.70;;;;;;5066032;28;20449;-79
2023/02/22 13:17:28;;;;;;;1.37;1.20;;;23.20;95.80;;;;;;5066001;28;20452;-76
2023/02/22 13:20:00;;;;;;;2.03;1.23;;;23.20;95.80;;;;;;5065681;28;20481;-76
2023/02/22 13:22:34;;;;;;;1.90;1.10;;;22.30;94.60;;;;;;5066121;28;20457;-75
2023/02/22 13:25:10;;;;;;;1.23;1.00;;;22.50;94.90;;;;;;5065984;28;20457;-79
2023/02/22 13:27:43;;;;;;;3.03;1.00;;;21.90;95.00;;;;;;5066000;28;20481;-86
2023/02/22 13:30:20;;;;;;;1.00;0.90;;;21.50;95.20;;;;;;5065512;28;20481;-76
2023/02/22 13:33:01;;;;;;;1.20;1.10;;;21.70;95.80;;;;;;5065734;28;20444;-82
2023/02/22 13:35:41;;;;;;;1.73;1.00;;;21.60;95.50;;;;;;5065775;28;20973;-79
2023/02/22 13:38:58;;;;;;;1.20;1.00;;;21.20;95.80;;;;;;5071887;28;20494;-81
2023/02/22 13:41:49;;;;;;;2.40;1.20;;;22.00;96.50;;;;;;5085978;28;20487;-77
2023/02/22 13:44:36;;;;;;;1.13;0.90;;;23.90;95.70;;;;;;5085836;28;20517;-77
2023/02/22 13:47:28;;;;;;;2.67;1.00;;;24.90;94.90;;;;;;5085479;28;20444;-77
2023/02/22 13:50:07;;;;;;;2.53;1.30;;;26.00;95.00;;;;;;5085693;28;20452;-76
2023/02/22 13:52:38;;;;;;;1.20;1.10;;;26.80;95.40;;;;;;5082230;28;20467;-76
2023/02/22 13:55:10;;;;;;;1.20;1.10;;;27.50;95.00;;;;;;5086436;28;20458;-79
2023/02/22 13:57:47;;;;;;;4.07;1.30;;;28.40;95.40;;;;;;5087015;28;20459;-76
2023/02/22 14:00:24;;;;;;;1.20;1.10;;;29.60;94.90;;;;;;5085432;28;20459;-76
2023/02/22 14:03:01;;;;;;;2.70;2.50;;;29.80;94.50;;;;;;5085654;28;20839;-77
2023/02/22 14:05:49;;;;;;;2.20;1.43;;;29.40;94.20;;;;;;5085608;28;20457;-77
2023/02/22 14:08:44;;;;;;;3.00;2.00;;;28.10;93.80;;;;;;5085194;28;20980;-81
2023/02/22 14:11:42;;;;;;;1.30;1.20;;;26.40;94.10;;;;;;5085568;28;20835;-76
2023/02/22 14:14:13;;;;;;;1.40;1.30;;;25.70;95.00;;;;;;5085210;28;20444;-77
2023/02/22 14:16:40;;;;;;;1.30;1.20;;;25.40;94.50;;;;;;5083580;28;21022;-76
2023/02/22 14:19:16;;;;;;;1.80;1.03;;;24.40;94.70;;;;;;5084211;28;20459;-75
2023/02/22 14:22:00;;;;;;;3.83;1.20;;;23.60;94.00;;;;;;5082362;28;20494;-74
2023/02/22 14:24:28;;;;;;;14.30;6.17;;;23.10;94.70;;;;;;5085463;28;20891;-75
2023/02/22 14:26:58;;;;;;;3.20;2.03;;;23.60;94.80;;;;;;5083341;28;20445;-78
2023/02/22 14:29:25;;;;;;;2.07;1.20;;;24.00;94.50;;;;;;5072645;28;20645;-77